sensor_id;sensor_type;location;lat;lon;timestamp;P1;durP1;ratioP1;P2;durP2;ratioP2
63536;SDS011;49686;51.880;5.632;2023-05-21T00:02:08;4.82;;;2.80;;
63536;SDS011;49686;51.880;5.632;2023-05-21T00:04:34;3.50;;;2.67;;
63536;SDS011;49686;51.880;5.632;2023-05-21T00:07:03;3.03;;;2.72;;
63536;SDS011;49686;51.880;5.632;2023-05-21T00:09:30;5.03;;;3.03;;
63536;SDS011;49686;51.880;5.632;2023-05-21T00:11:59;3.17;;;2.83;;
63536;SDS011;49686;51.880;5.632;2023-05-21T00:14:26;4.45;;;3.42;;
63536;SDS011;49686;51.880;5.632;2023-05-21T00:16:53;5.47;;;3.00;;
63536;SDS011;49686;51.880;5.632;2023-05-21T00:19:20;3.70;;;3.00;;
63536;SDS011;49686;51.880;5.632;2023-05-21T00:21:47;3.72;;;3.08;;
63536;SDS011;49686;51.880;5.632;2023-05-21T00:24:15;4.10;;;3.20;;
63536;SDS011;49686;51.880;5.632;2023-05-21T00:26:41;4.82;;;3.20;;
63536;SDS011;49686;51.880;5.632;2023-05-21T00:29:11;5.30;;;2.95;;
63536;SDS011;49686;51.880;5.632;2023-05-21T00:31:38;3.80;;;2.92;;
63536;SDS011;49686;51.880;5.632;2023-05-21T00:34:05;6.95;;;3.47;;
63536;SDS011;49686;51.880;5.632;2023-05-21T00:36:31;5.25;;;3.60;;
63536;SDS011;49686;51.880;5.632;2023-05-21T00:38:58;6.22;;;3.35;;
63536;SDS011;49686;51.880;5.632;2023-05-21T00:41:26;3.70;;;3.30;;
63536;SDS011;49686;51.880;5.632;2023-05-21T00:43:53;4.70;;;3.40;;
63536;SDS011;49686;51.880;5.632;2023-05-21T00:46:23;4.32;;;3.30;;
63536;SDS011;49686;51.880;5.632;2023-05-21T00:48:50;5.60;;;3.67;;
63536;SDS011;49686;51.880;5.632;2023-05-21T00:51:20;5.45;;;3.75;;
63536;SDS011;49686;51.880;5.632;2023-05-21T00:53:48;4.40;;;3.13;;
63536;SDS011;49686;51.880;5.632;2023-05-21T00:56:16;3.50;;;3.20;;
63536;SDS011;49686;51.880;5.632;2023-05-21T00:58:46;4.45;;;3.35;;
63536;SDS011;49686;51.880;5.632;2023-05-21T01:01:13;4.28;;;3.25;;
63536;SDS011;49686;51.880;5.632;2023-05-21T01:03:43;4.72;;;3.47;;
63536;SDS011;49686;51.880;5.632;2023-05-21T01:06:10;5.10;;;3.55;;
63536;SDS011;49686;51.880;5.632;2023-05-21T01:08:39;6.30;;;3.40;;
63536;SDS011;49686;51.880;5.632;2023-05-21T01:11:07;5.65;;;3.42;;
63536;SDS011;49686;51.880;5.632;2023-05-21T01:13:36;5.43;;;3.73;;
63536;SDS011;49686;51.880;5.632;2023-05-21T01:16:06;4.70;;;3.13;;
63536;SDS011;49686;51.880;5.632;2023-05-21T01:18:34;7.30;;;3.50;;
63536;SDS011;49686;51.880;5.632;2023-05-21T01:21:04;4.68;;;3.58;;
63536;SDS011;49686;51.880;5.632;2023-05-21T01:23:32;4.28;;;3.45;;
63536;SDS011;49686;51.880;5.632;2023-05-21T01:25:59;10.63;;;3.75;;
63536;SDS011;49686;51.880;5.632;2023-05-21T01:28:29;7.13;;;3.80;;
63536;SDS011;49686;51.880;5.632;2023-05-21T01:30:56;6.18;;;4.22;;
63536;SDS011;49686;51.880;5.632;2023-05-21T01:33:27;5.15;;;3.78;;
63536;SDS011;49686;51.880;5.632;2023-05-21T01:35:59;6.20;;;4.00;;
63536;SDS011;49686;51.880;5.632;2023-05-21T01:38:35;4.70;;;3.47;;
63536;SDS011;49686;51.880;5.632;2023-05-21T01:41:07;7.50;;;4.40;;
63536;SDS011;49686;51.880;5.632;2023-05-21T01:43:38;5.15;;;3.83;;
63536;SDS011;49686;51.880;5.632;2023-05-21T01:46:12;4.95;;;4.10;;
63536;SDS011;49686;51.880;5.632;2023-05-21T01:48:42;5.07;;;4.13;;
63536;SDS011;49686;51.880;5.632;2023-05-21T01:51:13;5.00;;;4.03;;
63536;SDS011;49686;51.880;5.632;2023-05-21T01:53:41;5.68;;;4.35;;
63536;SDS011;49686;51.880;5.632;2023-05-21T01:56:14;4.80;;;3.80;;
63536;SDS011;49686;51.880;5.632;2023-05-21T01:58:41;4.82;;;3.60;;
63536;SDS011;49686;51.880;5.632;2023-05-21T02:01:08;4.75;;;3.83;;
63536;SDS011;49686;51.880;5.632;2023-05-21T02:03:35;6.07;;;4.50;;
63536;SDS011;49686;51.880;5.632;2023-05-21T02:06:14;6.43;;;4.28;;
63536;SDS011;49686;51.880;5.632;2023-05-21T02:08:42;6.38;;;4.50;;
63536;SDS011;49686;51.880;5.632;2023-05-21T02:11:11;6.43;;;4.85;;
63536;SDS011;49686;51.880;5.632;2023-05-21T02:13:43;7.25;;;4.30;;
63536;SDS011;49686;51.880;5.632;2023-05-21T02:16:10;6.47;;;4.30;;
63536;SDS011;49686;51.880;5.632;2023-05-21T02:18:38;7.15;;;4.18;;
63536;SDS011;49686;51.880;5.632;2023-05-21T02:21:04;6.50;;;4.40;;
63536;SDS011;49686;51.880;5.632;2023-05-21T02:23:31;6.65;;;4.53;;
63536;SDS011;49686;51.880;5.632;2023-05-21T02:25:59;7.93;;;4.82;;
63536;SDS011;49686;51.880;5.632;2023-05-21T02:28:26;9.38;;;5.05;;
63536;SDS011;49686;51.880;5.632;2023-05-21T02:30:53;8.18;;;5.07;;
63536;SDS011;49686;51.880;5.632;2023-05-21T02:33:22;8.32;;;4.80;;
63536;SDS011;49686;51.880;5.632;2023-05-21T02:35:49;7.13;;;4.50;;
63536;SDS011;49686;51.880;5.632;2023-05-21T02:38:16;7.15;;;4.57;;
63536;SDS011;49686;51.880;5.632;2023-05-21T02:40:43;6.53;;;4.80;;
63536;SDS011;49686;51.880;5.632;2023-05-21T02:43:11;7.72;;;4.35;;
63536;SDS011;49686;51.880;5.632;2023-05-21T02:45:43;5.18;;;4.10;;
63536;SDS011;49686;51.880;5.632;2023-05-21T02:48:11;7.10;;;4.30;;
63536;SDS011;49686;51.880;5.632;2023-05-21T02:50:38;5.70;;;4.07;;
63536;SDS011;49686;51.880;5.632;2023-05-21T02:53:04;6.80;;;4.18;;
63536;SDS011;49686;51.880;5.632;2023-05-21T02:55:31;6.25;;;4.60;;
63536;SDS011;49686;51.880;5.632;2023-05-21T02:57:58;6.78;;;4.45;;
63536;SDS011;49686;51.880;5.632;2023-05-21T03:00:32;5.93;;;4.10;;
63536;SDS011;49686;51.880;5.632;2023-05-21T03:03:02;5.07;;;3.72;;
63536;SDS011;49686;51.880;5.632;2023-05-21T03:05:29;7.28;;;4.13;;
63536;SDS011;49686;51.880;5.632;2023-05-21T03:07:56;6.63;;;4.35;;
63536;SDS011;49686;51.880;5.632;2023-05-21T03:10:23;5.05;;;4.10;;
63536;SDS011;49686;51.880;5.632;2023-05-21T03:12:50;10.15;;;5.50;;
63536;SDS011;49686;51.880;5.632;2023-05-21T03:15:17;8.05;;;4.47;;
63536;SDS011;49686;51.880;5.632;2023-05-21T03:17:45;6.80;;;4.38;;
63536;SDS011;49686;51.880;5.632;2023-05-21T03:20:12;6.88;;;4.65;;
63536;SDS011;49686;51.880;5.632;2023-05-21T03:22:39;5.38;;;4.70;;
63536;SDS011;49686;51.880;5.632;2023-05-21T03:25:07;7.68;;;4.80;;
63536;SDS011;49686;51.880;5.632;2023-05-21T03:27:35;6.40;;;4.90;;
63536;SDS011;49686;51.880;5.632;2023-05-21T03:30:02;8.45;;;5.03;;
63536;SDS011;49686;51.880;5.632;2023-05-21T03:32:33;6.10;;;4.47;;
63536;SDS011;49686;51.880;5.632;2023-05-21T03:35:01;6.00;;;4.57;;
63536;SDS011;49686;51.880;5.632;2023-05-21T03:37:28;5.47;;;4.55;;
63536;SDS011;49686;51.880;5.632;2023-05-21T03:39:55;7.05;;;5.07;;
63536;SDS011;49686;51.880;5.632;2023-05-21T03:42:22;6.97;;;5.10;;
63536;SDS011;49686;51.880;5.632;2023-05-21T03:44:49;6.68;;;5.07;;
63536;SDS011;49686;51.880;5.632;2023-05-21T03:47:16;6.95;;;4.60;;
63536;SDS011;49686;51.880;5.632;2023-05-21T03:49:42;6.88;;;4.80;;
63536;SDS011;49686;51.880;5.632;2023-05-21T03:52:11;6.10;;;4.75;;
63536;SDS011;49686;51.880;5.632;2023-05-21T03:54:40;7.38;;;4.85;;
63536;SDS011;49686;51.880;5.632;2023-05-21T03:57:08;7.03;;;5.03;;
63536;SDS011;49686;51.880;5.632;2023-05-21T03:59:35;8.45;;;5.60;;
63536;SDS011;49686;51.880;5.632;2023-05-21T04:02:01;9.23;;;5.78;;
63536;SDS011;49686;51.880;5.632;2023-05-21T04:04:28;5.95;;;4.93;;
63536;SDS011;49686;51.880;5.632;2023-05-21T04:06:55;7.97;;;5.45;;
63536;SDS011;49686;51.880;5.632;2023-05-21T04:09:23;7.18;;;5.40;;
63536;SDS011;49686;51.880;5.632;2023-05-21T04:11:50;6.40;;;5.00;;
63536;SDS011;49686;51.880;5.632;2023-05-21T04:14:17;6.45;;;5.43;;
63536;SDS011;49686;51.880;5.632;2023-05-21T04:16:44;8.85;;;4.90;;
63536;SDS011;49686;51.880;5.632;2023-05-21T04:19:11;7.90;;;5.15;;
63536;SDS011;49686;51.880;5.632;2023-05-21T04:21:37;7.03;;;5.00;;
63536;SDS011;49686;51.880;5.632;2023-05-21T04:24:04;7.20;;;5.20;;
63536;SDS011;49686;51.880;5.632;2023-05-21T04:26:33;6.78;;;5.50;;
63536;SDS011;49686;51.880;5.632;2023-05-21T04:28:59;8.93;;;6.33;;
63536;SDS011;49686;51.880;5.632;2023-05-21T04:31:26;7.47;;;5.57;;
63536;SDS011;49686;51.880;5.632;2023-05-21T04:33:53;7.68;;;5.43;;
63536;SDS011;49686;51.880;5.632;2023-05-21T04:36:22;8.57;;;5.72;;
63536;SDS011;49686;51.880;5.632;2023-05-21T04:38:50;7.35;;;5.13;;
63536;SDS011;49686;51.880;5.632;2023-05-21T04:41:17;7.47;;;5.10;;
63536;SDS011;49686;51.880;5.632;2023-05-21T04:43:45;7.95;;;5.97;;
63536;SDS011;49686;51.880;5.632;2023-05-21T04:46:12;7.00;;;5.63;;
63536;SDS011;49686;51.880;5.632;2023-05-21T04:48:39;10.38;;;5.28;;
63536;SDS011;49686;51.880;5.632;2023-05-21T04:51:09;7.47;;;5.00;;
63536;SDS011;49686;51.880;5.632;2023-05-21T04:53:36;8.57;;;5.43;;
63536;SDS011;49686;51.880;5.632;2023-05-21T04:56:03;7.72;;;5.63;;
63536;SDS011;49686;51.880;5.632;2023-05-21T04:58:32;9.57;;;5.47;;
63536;SDS011;49686;51.880;5.632;2023-05-21T05:01:00;9.25;;;5.10;;
63536;SDS011;49686;51.880;5.632;2023-05-21T05:03:27;6.40;;;4.90;;
63536;SDS011;49686;51.880;5.632;2023-05-21T05:05:54;7.85;;;5.63;;
63536;SDS011;49686;51.880;5.632;2023-05-21T05:08:21;6.85;;;4.75;;
63536;SDS011;49686;51.880;5.632;2023-05-21T05:10:48;7.55;;;5.10;;
63536;SDS011;49686;51.880;5.632;2023-05-21T05:13:15;5.72;;;4.32;;
63536;SDS011;49686;51.880;5.632;2023-05-21T05:15:41;6.70;;;4.55;;
63536;SDS011;49686;51.880;5.632;2023-05-21T05:18:09;6.05;;;5.10;;
63536;SDS011;49686;51.880;5.632;2023-05-21T05:20:36;7.93;;;5.05;;
63536;SDS011;49686;51.880;5.632;2023-05-21T05:23:03;6.95;;;4.93;;
63536;SDS011;49686;51.880;5.632;2023-05-21T05:25:30;8.30;;;4.80;;
63536;SDS011;49686;51.880;5.632;2023-05-21T05:27:57;6.68;;;4.97;;
63536;SDS011;49686;51.880;5.632;2023-05-21T05:30:24;8.45;;;5.10;;
63536;SDS011;49686;51.880;5.632;2023-05-21T05:32:51;6.68;;;4.90;;
63536;SDS011;49686;51.880;5.632;2023-05-21T05:35:21;6.80;;;5.10;;
63536;SDS011;49686;51.880;5.632;2023-05-21T05:37:48;7.82;;;4.70;;
63536;SDS011;49686;51.880;5.632;2023-05-21T05:40:15;5.88;;;5.07;;
63536;SDS011;49686;51.880;5.632;2023-05-21T05:42:42;5.95;;;4.43;;
63536;SDS011;49686;51.880;5.632;2023-05-21T05:45:10;6.85;;;5.10;;
63536;SDS011;49686;51.880;5.632;2023-05-21T05:47:41;7.60;;;5.20;;
63536;SDS011;49686;51.880;5.632;2023-05-21T05:50:10;6.10;;;5.50;;
63536;SDS011;49686;51.880;5.632;2023-05-21T05:52:38;8.38;;;5.57;;
63536;SDS011;49686;51.880;5.632;2023-05-21T05:55:05;7.80;;;5.72;;
63536;SDS011;49686;51.880;5.632;2023-05-21T05:57:37;6.95;;;5.18;;
63536;SDS011;49686;51.880;5.632;2023-05-21T06:00:04;6.63;;;5.13;;
63536;SDS011;49686;51.880;5.632;2023-05-21T06:02:32;10.90;;;6.60;;
63536;SDS011;49686;51.880;5.632;2023-05-21T06:04:59;7.50;;;5.63;;
63536;SDS011;49686;51.880;5.632;2023-05-21T06:07:29;6.43;;;5.18;;
63536;SDS011;49686;51.880;5.632;2023-05-21T06:09:58;7.00;;;5.03;;
63536;SDS011;49686;51.880;5.632;2023-05-21T06:12:27;6.28;;;4.82;;
63536;SDS011;49686;51.880;5.632;2023-05-21T06:15:08;8.80;;;5.95;;
63536;SDS011;49686;51.880;5.632;2023-05-21T06:17:35;8.43;;;5.30;;
63536;SDS011;49686;51.880;5.632;2023-05-21T06:20:03;7.30;;;5.38;;
63536;SDS011;49686;51.880;5.632;2023-05-21T06:22:34;8.98;;;6.38;;
63536;SDS011;49686;51.880;5.632;2023-05-21T06:25:10;6.65;;;4.63;;
63536;SDS011;49686;51.880;5.632;2023-05-21T06:27:37;7.57;;;5.32;;
63536;SDS011;49686;51.880;5.632;2023-05-21T06:30:04;6.50;;;5.25;;
63536;SDS011;49686;51.880;5.632;2023-05-21T06:32:32;8.47;;;5.60;;
63536;SDS011;49686;51.880;5.632;2023-05-21T06:34:59;6.68;;;5.82;;
63536;SDS011;49686;51.880;5.632;2023-05-21T06:37:26;11.15;;;5.45;;
63536;SDS011;49686;51.880;5.632;2023-05-21T06:39:53;7.88;;;6.15;;
63536;SDS011;49686;51.880;5.632;2023-05-21T06:42:21;7.07;;;5.40;;
63536;SDS011;49686;51.880;5.632;2023-05-21T06:44:48;8.38;;;5.40;;
63536;SDS011;49686;51.880;5.632;2023-05-21T06:47:15;7.10;;;5.18;;
63536;SDS011;49686;51.880;5.632;2023-05-21T06:49:41;6.30;;;5.05;;
63536;SDS011;49686;51.880;5.632;2023-05-21T06:52:11;7.28;;;4.90;;
63536;SDS011;49686;51.880;5.632;2023-05-21T06:54:38;6.68;;;5.25;;
63536;SDS011;49686;51.880;5.632;2023-05-21T06:57:05;9.43;;;5.20;;
63536;SDS011;49686;51.880;5.632;2023-05-21T06:59:33;6.80;;;4.97;;
63536;SDS011;49686;51.880;5.632;2023-05-21T07:02:00;8.45;;;5.22;;
63536;SDS011;49686;51.880;5.632;2023-05-21T07:04:29;6.72;;;4.70;;
63536;SDS011;49686;51.880;5.632;2023-05-21T07:06:56;10.52;;;5.38;;
63536;SDS011;49686;51.880;5.632;2023-05-21T07:09:23;8.15;;;4.93;;
63536;SDS011;49686;51.880;5.632;2023-05-21T07:11:50;7.85;;;5.15;;
63536;SDS011;49686;51.880;5.632;2023-05-21T07:14:17;8.43;;;5.22;;
63536;SDS011;49686;51.880;5.632;2023-05-21T07:16:45;7.93;;;4.80;;
63536;SDS011;49686;51.880;5.632;2023-05-21T07:19:13;9.02;;;5.18;;
63536;SDS011;49686;51.880;5.632;2023-05-21T07:21:40;7.72;;;5.38;;
63536;SDS011;49686;51.880;5.632;2023-05-21T07:24:09;6.97;;;5.47;;
63536;SDS011;49686;51.880;5.632;2023-05-21T07:26:36;5.93;;;4.97;;
63536;SDS011;49686;51.880;5.632;2023-05-21T07:29:05;6.60;;;4.60;;
63536;SDS011;49686;51.880;5.632;2023-05-21T07:31:33;7.88;;;5.05;;
63536;SDS011;49686;51.880;5.632;2023-05-21T07:34:04;8.65;;;5.15;;
63536;SDS011;49686;51.880;5.632;2023-05-21T07:36:31;6.55;;;4.95;;
63536;SDS011;49686;51.880;5.632;2023-05-21T07:38:58;4.88;;;4.22;;
63536;SDS011;49686;51.880;5.632;2023-05-21T07:41:28;7.10;;;5.25;;
63536;SDS011;49686;51.880;5.632;2023-05-21T07:43:55;6.75;;;5.65;;
63536;SDS011;49686;51.880;5.632;2023-05-21T07:46:22;7.20;;;5.15;;
63536;SDS011;49686;51.880;5.632;2023-05-21T07:48:50;7.37;;;5.60;;
63536;SDS011;49686;51.880;5.632;2023-05-21T07:51:23;8.68;;;5.32;;
63536;SDS011;49686;51.880;5.632;2023-05-21T07:53:50;7.18;;;5.18;;
63536;SDS011;49686;51.880;5.632;2023-05-21T07:56:19;6.25;;;5.00;;
63536;SDS011;49686;51.880;5.632;2023-05-21T07:58:46;8.18;;;5.43;;
63536;SDS011;49686;51.880;5.632;2023-05-21T08:01:13;6.72;;;5.18;;
63536;SDS011;49686;51.880;5.632;2023-05-21T08:03:43;9.15;;;5.40;;
63536;SDS011;49686;51.880;5.632;2023-05-21T08:06:10;8.23;;;5.50;;
63536;SDS011;49686;51.880;5.632;2023-05-21T08:08:38;6.03;;;4.85;;
63536;SDS011;49686;51.880;5.632;2023-05-21T08:11:06;6.43;;;5.07;;
63536;SDS011;49686;51.880;5.632;2023-05-21T08:13:32;5.72;;;5.05;;
63536;SDS011;49686;51.880;5.632;2023-05-21T08:16:03;7.55;;;5.13;;
63536;SDS011;49686;51.880;5.632;2023-05-21T08:18:31;9.32;;;4.97;;
63536;SDS011;49686;51.880;5.632;2023-05-21T08:20:58;6.88;;;5.43;;
63536;SDS011;49686;51.880;5.632;2023-05-21T08:23:27;12.02;;;5.38;;
63536;SDS011;49686;51.880;5.632;2023-05-21T08:25:56;8.20;;;5.28;;
63536;SDS011;49686;51.880;5.632;2023-05-21T08:28:32;8.15;;;5.28;;
63536;SDS011;49686;51.880;5.632;2023-05-21T08:30:58;8.52;;;5.75;;
63536;SDS011;49686;51.880;5.632;2023-05-21T08:33:28;7.53;;;5.72;;
63536;SDS011;49686;51.880;5.632;2023-05-21T08:35:56;10.10;;;6.10;;
63536;SDS011;49686;51.880;5.632;2023-05-21T08:38:25;7.45;;;5.70;;
63536;SDS011;49686;51.880;5.632;2023-05-21T08:40:56;8.23;;;5.32;;
63536;SDS011;49686;51.880;5.632;2023-05-21T08:43:25;7.90;;;4.97;;
63536;SDS011;49686;51.880;5.632;2023-05-21T08:48:25;7.70;;;5.80;;
63536;SDS011;49686;51.880;5.632;2023-05-21T08:50:55;9.30;;;6.03;;
63536;SDS011;49686;51.880;5.632;2023-05-21T08:53:22;7.32;;;5.15;;
63536;SDS011;49686;51.880;5.632;2023-05-21T08:55:54;7.97;;;5.57;;
63536;SDS011;49686;51.880;5.632;2023-05-21T08:58:23;8.55;;;5.70;;
63536;SDS011;49686;51.880;5.632;2023-05-21T09:00:57;8.95;;;5.90;;
63536;SDS011;49686;51.880;5.632;2023-05-21T09:03:26;9.52;;;5.82;;
63536;SDS011;49686;51.880;5.632;2023-05-21T09:05:54;9.67;;;6.37;;
63536;SDS011;49686;51.880;5.632;2023-05-21T09:08:30;7.60;;;5.32;;
63536;SDS011;49686;51.880;5.632;2023-05-21T09:11:00;8.55;;;5.18;;
63536;SDS011;49686;51.880;5.632;2023-05-21T09:13:27;13.32;;;6.43;;
63536;SDS011;49686;51.880;5.632;2023-05-21T09:15:56;6.28;;;5.15;;
63536;SDS011;49686;51.880;5.632;2023-05-21T09:18:24;8.15;;;6.20;;
63536;SDS011;49686;51.880;5.632;2023-05-21T09:20:53;6.97;;;5.75;;
63536;SDS011;49686;51.880;5.632;2023-05-21T09:23:20;8.05;;;5.90;;
63536;SDS011;49686;51.880;5.632;2023-05-21T09:25:48;8.60;;;5.82;;
63536;SDS011;49686;51.880;5.632;2023-05-21T09:28:18;7.60;;;5.78;;
63536;SDS011;49686;51.880;5.632;2023-05-21T09:30:45;10.52;;;6.53;;
63536;SDS011;49686;51.880;5.632;2023-05-21T09:33:23;8.88;;;5.60;;
63536;SDS011;49686;51.880;5.632;2023-05-21T09:36:00;8.00;;;5.70;;
63536;SDS011;49686;51.880;5.632;2023-05-21T09:38:27;7.20;;;5.95;;
63536;SDS011;49686;51.880;5.632;2023-05-21T09:40:54;7.75;;;6.03;;
63536;SDS011;49686;51.880;5.632;2023-05-21T09:43:22;10.85;;;6.45;;
63536;SDS011;49686;51.880;5.632;2023-05-21T09:45:51;7.35;;;6.13;;
63536;SDS011;49686;51.880;5.632;2023-05-21T09:48:32;7.97;;;5.78;;
63536;SDS011;49686;51.880;5.632;2023-05-21T09:51:12;8.25;;;6.50;;
63536;SDS011;49686;51.880;5.632;2023-05-21T09:53:49;7.57;;;5.32;;
63536;SDS011;49686;51.880;5.632;2023-05-21T09:56:24;8.65;;;6.63;;
63536;SDS011;49686;51.880;5.632;2023-05-21T09:58:55;8.10;;;6.45;;
63536;SDS011;49686;51.880;5.632;2023-05-21T10:01:23;9.05;;;6.43;;
63536;SDS011;49686;51.880;5.632;2023-05-21T10:03:54;10.75;;;6.80;;
63536;SDS011;49686;51.880;5.632;2023-05-21T10:06:23;8.38;;;7.25;;
63536;SDS011;49686;51.880;5.632;2023-05-21T10:08:52;10.38;;;7.25;;
63536;SDS011;49686;51.880;5.632;2023-05-21T10:11:21;7.65;;;6.45;;
63536;SDS011;49686;51.880;5.632;2023-05-21T10:13:51;12.10;;;6.65;;
63536;SDS011;49686;51.880;5.632;2023-05-21T10:16:26;11.00;;;6.80;;
63536;SDS011;49686;51.880;5.632;2023-05-21T10:18:54;11.25;;;7.40;;
63536;SDS011;49686;51.880;5.632;2023-05-21T10:21:26;8.57;;;7.20;;
63536;SDS011;49686;51.880;5.632;2023-05-21T10:23:54;10.40;;;7.78;;
63536;SDS011;49686;51.880;5.632;2023-05-21T10:26:23;10.30;;;7.68;;
63536;SDS011;49686;51.880;5.632;2023-05-21T10:28:50;10.18;;;8.20;;
63536;SDS011;49686;51.880;5.632;2023-05-21T10:31:18;10.70;;;7.82;;
63536;SDS011;49686;51.880;5.632;2023-05-21T10:33:55;12.15;;;8.30;;
63536;SDS011;49686;51.880;5.632;2023-05-21T10:36:28;11.15;;;7.93;;
63536;SDS011;49686;51.880;5.632;2023-05-21T10:38:58;10.50;;;7.97;;
63536;SDS011;49686;51.880;5.632;2023-05-21T10:41:27;14.73;;;9.02;;
63536;SDS011;49686;51.880;5.632;2023-05-21T10:44:03;8.77;;;7.38;;
63536;SDS011;49686;51.880;5.632;2023-05-21T10:49:53;11.32;;;8.65;;
63536;SDS011;49686;51.880;5.632;2023-05-21T10:52:38;12.63;;;9.13;;
63536;SDS011;49686;51.880;5.632;2023-05-21T10:55:21;12.13;;;8.75;;
63536;SDS011;49686;51.880;5.632;2023-05-21T11:01:08;13.90;;;8.43;;
63536;SDS011;49686;51.880;5.632;2023-05-21T11:03:40;13.20;;;9.48;;
63536;SDS011;49686;51.880;5.632;2023-05-21T11:06:08;11.85;;;8.52;;
63536;SDS011;49686;51.880;5.632;2023-05-21T11:08:35;12.40;;;9.15;;
63536;SDS011;49686;51.880;5.632;2023-05-21T11:11:02;12.45;;;9.13;;
63536;SDS011;49686;51.880;5.632;2023-05-21T11:13:43;12.88;;;9.07;;
63536;SDS011;49686;51.880;5.632;2023-05-21T11:16:14;14.50;;;9.05;;
63536;SDS011;49686;51.880;5.632;2023-05-21T11:18:59;10.00;;;8.32;;
63536;SDS011;49686;51.880;5.632;2023-05-21T11:21:35;10.50;;;8.50;;
63536;SDS011;49686;51.880;5.632;2023-05-21T11:24:05;13.63;;;8.98;;
63536;SDS011;49686;51.880;5.632;2023-05-21T11:26:57;12.88;;;9.48;;
63536;SDS011;49686;51.880;5.632;2023-05-21T11:29:30;9.95;;;8.68;;
63536;SDS011;49686;51.880;5.632;2023-05-21T11:32:13;9.82;;;8.52;;
63536;SDS011;49686;51.880;5.632;2023-05-21T11:34:46;13.75;;;8.60;;
63536;SDS011;49686;51.880;5.632;2023-05-21T11:37:23;9.25;;;8.20;;
63536;SDS011;49686;51.880;5.632;2023-05-21T11:40:15;12.40;;;8.65;;
63536;SDS011;49686;51.880;5.632;2023-05-21T11:42:48;10.18;;;9.00;;
63536;SDS011;49686;51.880;5.632;2023-05-21T11:45:16;11.35;;;8.75;;
63536;SDS011;49686;51.880;5.632;2023-05-21T11:47:44;12.30;;;9.23;;
63536;SDS011;49686;51.880;5.632;2023-05-21T11:50:14;10.15;;;8.75;;
63536;SDS011;49686;51.880;5.632;2023-05-21T11:52:41;13.75;;;8.88;;
63536;SDS011;49686;51.880;5.632;2023-05-21T11:55:11;11.02;;;8.52;;
63536;SDS011;49686;51.880;5.632;2023-05-21T11:57:40;10.15;;;7.57;;
63536;SDS011;49686;51.880;5.632;2023-05-21T12:00:11;10.00;;;7.85;;
63536;SDS011;49686;51.880;5.632;2023-05-21T12:02:43;12.68;;;8.73;;
63536;SDS011;49686;51.880;5.632;2023-05-21T12:05:11;11.40;;;8.32;;
63536;SDS011;49686;51.880;5.632;2023-05-21T12:07:44;11.02;;;8.75;;
63536;SDS011;49686;51.880;5.632;2023-05-21T12:12:56;14.57;;;8.43;;
63536;SDS011;49686;51.880;5.632;2023-05-21T12:15:24;14.70;;;8.32;;
63536;SDS011;49686;51.880;5.632;2023-05-21T12:17:54;10.13;;;8.18;;
63536;SDS011;49686;51.880;5.632;2023-05-21T12:20:21;12.85;;;8.30;;
63536;SDS011;49686;51.880;5.632;2023-05-21T12:22:49;11.10;;;7.82;;
63536;SDS011;49686;51.880;5.632;2023-05-21T12:25:17;11.30;;;7.97;;
63536;SDS011;49686;51.880;5.632;2023-05-21T12:27:44;13.07;;;7.88;;
63536;SDS011;49686;51.880;5.632;2023-05-21T12:30:11;24.60;;;8.25;;
63536;SDS011;49686;51.880;5.632;2023-05-21T12:32:39;9.63;;;8.18;;
63536;SDS011;49686;51.880;5.632;2023-05-21T12:35:07;9.48;;;7.25;;
63536;SDS011;49686;51.880;5.632;2023-05-21T12:37:34;9.55;;;7.30;;
63536;SDS011;49686;51.880;5.632;2023-05-21T12:40:04;8.55;;;6.97;;
63536;SDS011;49686;51.880;5.632;2023-05-21T12:42:35;9.55;;;7.32;;
63536;SDS011;49686;51.880;5.632;2023-05-21T12:45:04;9.90;;;7.35;;
63536;SDS011;49686;51.880;5.632;2023-05-21T12:47:32;8.27;;;7.05;;
63536;SDS011;49686;51.880;5.632;2023-05-21T12:50:00;11.32;;;7.45;;
63536;SDS011;49686;51.880;5.632;2023-05-21T12:52:28;14.43;;;8.13;;
63536;SDS011;49686;51.880;5.632;2023-05-21T12:54:55;8.88;;;7.18;;
63536;SDS011;49686;51.880;5.632;2023-05-21T12:57:24;8.00;;;6.75;;
63536;SDS011;49686;51.880;5.632;2023-05-21T12:59:56;8.10;;;6.97;;
63536;SDS011;49686;51.880;5.632;2023-05-21T13:02:25;9.95;;;7.50;;
63536;SDS011;49686;51.880;5.632;2023-05-21T13:04:53;11.95;;;6.80;;
63536;SDS011;49686;51.880;5.632;2023-05-21T13:07:35;10.55;;;7.38;;
63536;SDS011;49686;51.880;5.632;2023-05-21T13:10:07;11.30;;;7.55;;
63536;SDS011;49686;51.880;5.632;2023-05-21T13:12:38;7.88;;;7.03;;
63536;SDS011;49686;51.880;5.632;2023-05-21T13:15:11;10.35;;;7.22;;
63536;SDS011;49686;51.880;5.632;2023-05-21T13:17:39;9.00;;;7.07;;
63536;SDS011;49686;51.880;5.632;2023-05-21T13:20:06;8.45;;;7.30;;
63536;SDS011;49686;51.880;5.632;2023-05-21T13:22:38;9.30;;;6.95;;
63536;SDS011;49686;51.880;5.632;2023-05-21T13:25:06;9.52;;;6.30;;
63536;SDS011;49686;51.880;5.632;2023-05-21T13:27:38;7.63;;;6.40;;
63536;SDS011;49686;51.880;5.632;2023-05-21T13:30:05;9.52;;;6.35;;
63536;SDS011;49686;51.880;5.632;2023-05-21T13:32:47;9.88;;;6.80;;
63536;SDS011;49686;51.880;5.632;2023-05-21T13:35:17;9.93;;;7.10;;
63536;SDS011;49686;51.880;5.632;2023-05-21T13:37:45;10.32;;;7.30;;
63536;SDS011;49686;51.880;5.632;2023-05-21T13:40:13;17.23;;;6.90;;
63536;SDS011;49686;51.880;5.632;2023-05-21T13:42:44;7.13;;;5.90;;
63536;SDS011;49686;51.880;5.632;2023-05-21T13:45:15;9.90;;;6.43;;
63536;SDS011;49686;51.880;5.632;2023-05-21T13:47:44;12.13;;;6.93;;
63536;SDS011;49686;51.880;5.632;2023-05-21T13:50:11;12.48;;;7.38;;
63536;SDS011;49686;51.880;5.632;2023-05-21T13:52:41;8.60;;;6.82;;
63536;SDS011;49686;51.880;5.632;2023-05-21T13:55:08;10.98;;;7.47;;
63536;SDS011;49686;51.880;5.632;2023-05-21T13:57:35;10.43;;;7.22;;
63536;SDS011;49686;51.880;5.632;2023-05-21T14:00:06;7.65;;;6.53;;
63536;SDS011;49686;51.880;5.632;2023-05-21T14:02:33;11.43;;;7.05;;
63536;SDS011;49686;51.880;5.632;2023-05-21T14:05:00;6.97;;;6.20;;
63536;SDS011;49686;51.880;5.632;2023-05-21T14:07:27;10.77;;;7.50;;
63536;SDS011;49686;51.880;5.632;2023-05-21T14:09:54;8.95;;;7.50;;
63536;SDS011;49686;51.880;5.632;2023-05-21T14:12:21;8.07;;;7.22;;
63536;SDS011;49686;51.880;5.632;2023-05-21T14:14:49;7.97;;;6.82;;
63536;SDS011;49686;51.880;5.632;2023-05-21T14:17:17;8.25;;;7.28;;
63536;SDS011;49686;51.880;5.632;2023-05-21T14:19:47;10.40;;;7.68;;
63536;SDS011;49686;51.880;5.632;2023-05-21T14:22:14;11.27;;;7.78;;
63536;SDS011;49686;51.880;5.632;2023-05-21T14:24:40;9.73;;;7.35;;
63536;SDS011;49686;51.880;5.632;2023-05-21T14:27:10;10.60;;;7.65;;
63536;SDS011;49686;51.880;5.632;2023-05-21T14:29:42;9.13;;;7.80;;
63536;SDS011;49686;51.880;5.632;2023-05-21T14:32:12;10.52;;;7.82;;
63536;SDS011;49686;51.880;5.632;2023-05-21T14:34:40;11.10;;;7.18;;
63536;SDS011;49686;51.880;5.632;2023-05-21T14:37:09;10.65;;;7.03;;
63536;SDS011;49686;51.880;5.632;2023-05-21T14:39:36;10.95;;;8.00;;
63536;SDS011;49686;51.880;5.632;2023-05-21T14:42:03;10.30;;;7.20;;
63536;SDS011;49686;51.880;5.632;2023-05-21T14:44:33;10.15;;;7.40;;
63536;SDS011;49686;51.880;5.632;2023-05-21T14:46:59;8.93;;;7.22;;
63536;SDS011;49686;51.880;5.632;2023-05-21T14:49:26;11.07;;;8.27;;
63536;SDS011;49686;51.880;5.632;2023-05-21T14:51:56;8.50;;;6.95;;
63536;SDS011;49686;51.880;5.632;2023-05-21T14:54:23;10.10;;;6.85;;
63536;SDS011;49686;51.880;5.632;2023-05-21T14:56:50;9.75;;;7.32;;
63536;SDS011;49686;51.880;5.632;2023-05-21T14:59:23;11.23;;;7.50;;
63536;SDS011;49686;51.880;5.632;2023-05-21T15:01:50;10.63;;;7.07;;
63536;SDS011;49686;51.880;5.632;2023-05-21T15:04:17;15.90;;;7.70;;
63536;SDS011;49686;51.880;5.632;2023-05-21T15:06:44;11.68;;;7.82;;
63536;SDS011;49686;51.880;5.632;2023-05-21T15:09:15;8.93;;;7.72;;